createdAt,value
2023-03-25T00:02:05.925Z,98582.72
2023-03-25T00:04:39.522Z,98580.10
2023-03-25T00:07:08.160Z,98579.20
2023-03-25T00:09:36.644Z,98577.23
2023-03-25T00:12:06.218Z,98570.21
2023-03-25T00:14:34.840Z,98569.50
2023-03-25T00:17:07.072Z,98569.48
2023-03-25T00:19:35.915Z,98569.81
2023-03-25T00:22:04.398Z,98564.52
2023-03-25T00:24:33.378Z,98560.94
2023-03-25T00:27:01.762Z,98557.50
2023-03-25T00:29:35.770Z,98555.16
2023-03-25T00:32:05.700Z,98554.84
2023-03-25T00:34:35.503Z,98549.78
2023-03-25T00:37:06.031Z,98550.95
2023-03-25T00:39:36.259Z,98546.50
2023-03-25T00:42:11.399Z,98549.77
2023-03-25T00:44:41.198Z,98543.23
2023-03-25T00:47:11.958Z,98544.85
2023-03-25T00:49:40.428Z,98544.77
2023-03-25T00:52:08.809Z,98541.27
2023-03-25T00:54:38.416Z,98544.73
2023-03-25T00:57:06.851Z,98542.71
2023-03-25T00:59:36.510Z,98548.38
2023-03-25T01:02:05.408Z,98548.92
2023-03-25T01:04:40.048Z,98551.33
2023-03-25T01:07:09.885Z,98550.23
2023-03-25T01:09:39.764Z,98550.56
2023-03-25T01:12:08.549Z,98547.14
2023-03-25T01:14:36.938Z,98542.30
2023-03-25T01:17:05.515Z,98541.19
2023-03-25T01:19:34.717Z,98542.98
2023-03-25T01:22:03.607Z,98537.61
2023-03-25T01:24:32.822Z,98540.27
2023-03-25T01:27:01.396Z,98536.23
2023-03-25T01:29:30.906Z,98537.83
2023-03-25T01:31:59.396Z,98535.77
2023-03-25T01:34:27.970Z,98530.80
2023-03-25T01:36:56.662Z,98537.66
2023-03-25T01:39:25.960Z,98537.29
2023-03-25T01:41:55.560Z,98537.86
2023-03-25T01:44:24.470Z,98539.55
2023-03-25T01:46:54.512Z,98542.70
2023-03-25T01:49:30.445Z,98545.13
2023-03-25T01:52:06.950Z,98541.80
2023-03-25T01:54:35.496Z,98542.69
2023-03-25T01:57:05.568Z,98542.70
2023-03-25T01:59:34.102Z,98536.64
2023-03-25T02:02:04.140Z,98536.43
2023-03-25T02:04:39.394Z,98544.32
2023-03-25T02:07:08.865Z,98542.85
2023-03-25T02:09:40.328Z,98537.12
2023-03-25T02:12:09.144Z,98529.48
2023-03-25T02:14:39.366Z,98523.90
2023-03-25T02:17:15.805Z,98513.39
2023-03-25T02:20:14.088Z,98514.73
2023-03-25T02:23:11.042Z,98519.41
2023-03-25T02:25:56.624Z,98524.10
2023-03-25T02:28:47.528Z,98523.90
2023-03-25T02:31:38.309Z,98517.01
2023-03-25T02:34:43.378Z,98516.73
2023-03-25T02:37:17.615Z,98516.98
2023-03-25T02:39:52.546Z,98513.88
2023-03-25T02:42:37.608Z,98510.70
2023-03-25T02:45:13.766Z,98510.77
2023-03-25T02:47:46.780Z,98512.73
2023-03-25T02:50:22.409Z,98511.36
2023-03-25T02:52:52.321Z,98503.86
2023-03-25T02:55:23.060Z,98508.64
2023-03-25T02:57:53.311Z,98500.91
2023-03-25T03:00:28.772Z,98493.80
2023-03-25T03:03:00.423Z,98483.79
2023-03-25T03:05:35.023Z,98480.86
2023-03-25T03:08:15.078Z,98477.14
2023-03-25T03:10:45.393Z,98477.23
2023-03-25T03:13:49.417Z,98471.28
2023-03-25T03:16:48.714Z,98471.70
2023-03-25T03:19:34.563Z,98469.14
2023-03-25T03:22:43.854Z,98475.35
2023-03-25T03:25:23.084Z,98486.39
2023-03-25T03:28:16.966Z,98490.43
2023-03-25T03:30:58.676Z,98478.45
2023-03-25T03:33:33.315Z,98490.11
2023-03-25T03:36:04.668Z,98495.00
2023-03-25T03:38:37.319Z,98494.54
2023-03-25T03:44:14.363Z,98498.19
2023-03-25T03:46:48.544Z,98496.71
2023-03-25T03:49:22.346Z,98495.16
2023-03-25T03:51:59.153Z,98500.92
2023-03-25T03:54:30.167Z,98501.56
2023-03-25T03:57:03.393Z,98499.94
2023-03-25T04:00:14.652Z,98503.13
2023-03-25T04:02:54.272Z,98501.27
2023-03-25T04:05:23.195Z,98503.24
2023-03-25T04:08:17.476Z,98495.02
2023-03-25T04:10:52.946Z,98486.80
2023-03-25T04:13:22.016Z,98492.63
2023-03-25T04:15:52.111Z,98489.69
2023-03-25T04:18:23.692Z,98479.44
2023-03-25T04:20:52.086Z,98471.06
2023-03-25T04:23:21.580Z,98465.61
2023-03-25T04:25:53.673Z,98472.52
2023-03-25T04:28:28.069Z,98465.53
2023-03-25T04:30:57.791Z,98453.35
2023-03-25T04:33:26.471Z,98448.60
2023-03-25T04:35:55.020Z,98449.77
2023-03-25T04:38:23.640Z,98451.64
2023-03-25T04:40:52.563Z,98448.05
2023-03-25T04:43:21.221Z,98451.77
2023-03-25T04:45:55.021Z,98448.73
2023-03-25T04:48:26.204Z,98450.34
2023-03-25T04:50:56.192Z,98438.55
2023-03-25T04:53:26.124Z,98443.80
2023-03-25T04:55:55.328Z,98445.52
2023-03-25T04:58:23.891Z,98442.55
2023-03-25T05:00:53.102Z,98440.53
2023-03-25T05:03:24.878Z,98439.19
2023-03-25T05:05:53.948Z,98441.13
2023-03-25T05:08:23.564Z,98446.27
2023-03-25T05:10:52.862Z,98444.56
2023-03-25T05:13:24.623Z,98443.70
2023-03-25T05:15:54.250Z,98439.50
2023-03-25T05:18:22.814Z,98432.89
2023-03-25T05:21:01.131Z,98433.44
2023-03-25T05:23:31.867Z,98438.73
2023-03-25T05:26:00.254Z,98444.31
2023-03-25T05:28:31.844Z,98443.07
2023-03-25T05:31:00.303Z,98433.36
2023-03-25T05:33:29.792Z,98432.49
2023-03-25T05:35:58.206Z,98426.25
2023-03-25T05:38:26.962Z,98421.79
2023-03-25T05:40:55.343Z,98421.08
2023-03-25T05:43:24.848Z,98426.95
2023-03-25T05:45:53.776Z,98427.70
2023-03-25T05:48:23.249Z,98418.67
2023-03-25T05:50:51.633Z,98410.96
2023-03-25T05:53:21.033Z,98412.33
2023-03-25T05:55:52.396Z,98408.90
2023-03-25T05:58:25.400Z,98409.96
2023-03-25T06:00:54.988Z,98394.16
2023-03-25T06:03:26.445Z,98398.92
2023-03-25T06:05:56.968Z,98398.11
2023-03-25T06:08:26.388Z,98396.67
2023-03-25T06:11:01.101Z,98398.20
2023-03-25T06:13:29.899Z,98398.96
2023-03-25T06:16:00.321Z,98407.34
2023-03-25T06:18:34.847Z,98405.46
2023-03-25T06:21:04.453Z,98404.98
2023-03-25T06:23:35.808Z,98402.49
2023-03-25T06:26:04.602Z,98408.16
2023-03-25T06:28:34.708Z,98408.92
2023-03-25T06:31:27.980Z,98411.94
2023-03-25T06:33:56.985Z,98414.72
2023-03-25T06:36:27.714Z,98413.09
2023-03-25T06:38:58.665Z,98412.83
2023-03-25T06:41:36.110Z,98412.11
2023-03-25T06:44:17.127Z,98409.91
2023-03-25T06:47:12.035Z,98402.02
2023-03-25T06:49:50.954Z,98404.41
2023-03-25T06:52:19.672Z,98403.91
2023-03-25T06:54:51.507Z,98403.41
2023-03-25T06:57:20.001Z,98402.84
2023-03-25T06:59:49.928Z,98399.16
2023-03-25T07:02:18.391Z,98398.23
2023-03-25T07:04:47.029Z,98394.36
2023-03-25T07:07:16.286Z,98393.84
2023-03-25T07:09:46.813Z,98396.71
2023-03-25T07:12:15.189Z,98394.70
2023-03-25T07:14:57.499Z,98396.25
2023-03-25T07:17:26.030Z,98395.90
2023-03-25T07:19:58.369Z,98389.00
2023-03-25T07:22:28.070Z,98392.36
2023-03-25T07:24:58.604Z,98387.64
2023-03-25T07:27:29.235Z,98386.55
2023-03-25T07:30:04.927Z,98381.09
2023-03-25T07:32:37.273Z,98376.88
2023-03-25T07:35:06.884Z,98371.79
2023-03-25T07:37:35.681Z,98361.31
2023-03-25T07:40:04.859Z,98357.34
2023-03-25T07:42:33.753Z,98360.39
2023-03-25T07:45:44.354Z,98361.84
2023-03-25T07:48:17.108Z,98360.34
2023-03-25T07:50:46.322Z,98362.63
2023-03-25T07:53:16.536Z,98353.89
2023-03-25T07:55:51.225Z,98356.42
2023-03-25T07:58:19.965Z,98356.33
2023-03-25T08:00:49.353Z,98353.39
2023-03-25T08:03:18.402Z,98342.08
2023-03-25T08:05:49.757Z,98336.01
2023-03-25T08:08:19.922Z,98334.57
2023-03-25T08:10:48.920Z,98332.54
2023-03-25T08:13:20.166Z,98332.98
2023-03-25T08:15:51.058Z,98324.98
2023-03-25T08:18:20.205Z,98325.81
2023-03-25T08:20:51.255Z,98321.52
2023-03-25T08:23:20.365Z,98323.52
2023-03-25T08:25:49.789Z,98317.13
2023-03-25T08:28:23.728Z,98310.70
2023-03-25T08:30:55.837Z,98309.83
2023-03-25T08:33:39.871Z,98311.61
2023-03-25T08:36:10.753Z,98322.83
2023-03-25T08:38:39.308Z,98332.33
2023-03-25T08:41:08.144Z,98338.60
2023-03-25T08:43:36.582Z,98336.80
2023-03-25T08:46:08.250Z,98329.75
2023-03-25T08:48:38.042Z,98326.37
2023-03-25T08:51:08.171Z,98327.33
2023-03-25T08:53:37.987Z,98328.69
2023-03-25T08:56:07.605Z,98330.41
2023-03-25T08:58:38.426Z,98323.61
2023-03-25T09:01:07.419Z,98315.44
2023-03-25T09:03:38.876Z,98306.45
2023-03-25T09:06:08.879Z,98304.05
2023-03-25T09:08:37.591Z,98299.64
2023-03-25T09:11:07.523Z,98293.61
2023-03-25T09:13:40.080Z,98289.65
2023-03-25T09:16:09.858Z,98291.14
2023-03-25T09:18:45.156Z,98292.91
2023-03-25T09:21:13.825Z,98294.34
2023-03-25T09:23:43.570Z,98297.27
2023-03-25T09:26:12.427Z,98296.06
2023-03-25T09:28:41.213Z,98295.65
2023-03-25T09:31:10.551Z,98300.83
2023-03-25T09:33:39.112Z,98290.70
2023-03-25T09:36:08.460Z,98296.23
2023-03-25T09:38:40.163Z,98299.80
2023-03-25T09:41:48.176Z,98283.79
2023-03-25T09:44:27.308Z,98278.90
2023-03-25T09:46:56.017Z,98282.52
2023-03-25T09:49:26.031Z,98285.17
2023-03-25T09:51:59.823Z,98281.33
2023-03-25T09:54:36.392Z,98282.39
2023-03-25T09:57:07.402Z,98276.90
2023-03-25T09:59:49.405Z,98273.38
2023-03-25T10:02:40.048Z,98270.21
2023-03-25T10:05:43.083Z,98264.17
2023-03-25T10:08:45.106Z,98267.95
2023-03-25T10:11:32.636Z,98273.66
2023-03-25T10:14:23.238Z,98266.21
2023-03-25T10:16:58.275Z,98264.22
2023-03-25T10:19:42.425Z,98259.87
2023-03-25T10:22:36.925Z,98253.98
2023-03-25T10:25:10.316Z,98263.39
2023-03-25T10:27:41.910Z,98262.81
2023-03-25T10:30:18.836Z,98263.41
2023-03-25T10:32:59.391Z,98262.24
2023-03-25T10:35:32.646Z,98260.33
2023-03-25T10:38:14.471Z,98257.81
2023-03-25T10:40:50.548Z,98255.34
2023-03-25T10:43:31.554Z,98258.75
2023-03-25T10:46:13.434Z,98254.83
2023-03-25T10:48:42.341Z,98251.05
2023-03-25T10:51:12.395Z,98247.34
2023-03-25T10:53:49.886Z,98245.28
2023-03-25T10:56:43.165Z,98243.90
2023-03-25T10:59:45.602Z,98247.50
2023-03-25T11:02:22.890Z,98243.34
2023-03-25T11:04:59.054Z,98235.93
2023-03-25T11:07:30.658Z,98228.67
2023-03-25T11:10:14.857Z,98228.77
2023-03-25T11:12:48.666Z,98225.48
2023-03-25T11:15:29.600Z,98220.95
2023-03-25T11:18:26.182Z,98212.40
2023-03-25T11:21:15.048Z,98208.76
2023-03-25T11:23:51.212Z,98209.52
2023-03-25T11:26:24.926Z,98212.70
2023-03-25T11:28:57.296Z,98213.91
2023-03-25T11:31:27.554Z,98217.62
2023-03-25T11:34:06.624Z,98218.70
2023-03-25T11:36:57.046Z,98214.00
2023-03-25T11:39:37.105Z,98219.08
2023-03-25T11:42:17.076Z,98216.28
2023-03-25T11:44:52.774Z,98214.15
2023-03-25T11:47:26.460Z,98217.42
2023-03-25T11:49:54.899Z,98215.03
2023-03-25T11:52:28.304Z,98214.20
2023-03-25T11:55:00.589Z,98216.66
2023-03-25T11:57:36.355Z,98214.94
2023-03-25T12:00:36.143Z,98206.66
2023-03-25T12:03:14.756Z,98213.87
2023-03-25T12:05:43.566Z,98210.52
2023-03-25T12:08:15.641Z,98205.42
2023-03-25T12:10:52.923Z,98203.86
2023-03-25T12:13:26.828Z,98206.52
2023-03-25T12:16:12.161Z,98212.68
2023-03-25T12:19:19.197Z,98211.90
2023-03-25T12:22:16.252Z,98210.96
2023-03-25T12:24:48.727Z,98201.45
2023-03-25T12:27:36.773Z,98202.75
2023-03-25T12:30:15.416Z,98203.16
2023-03-25T12:33:00.393Z,98206.66
2023-03-25T12:35:35.728Z,98204.51
2023-03-25T12:38:19.653Z,98201.84
2023-03-25T12:40:51.573Z,98195.29
2023-03-25T12:43:26.764Z,98198.52
2023-03-25T12:46:09.601Z,98197.02
2023-03-25T12:48:45.436Z,98196.25
2023-03-25T12:51:17.925Z,98196.03
2023-03-25T12:53:49.263Z,98196.89
2023-03-25T12:56:30.002Z,98193.59
2023-03-25T12:59:16.645Z,98189.80
2023-03-25T13:01:54.877Z,98180.02
2023-03-25T13:04:39.834Z,98175.22
2023-03-25T13:07:19.784Z,98176.40
2023-03-25T13:09:59.533Z,98175.52
2023-03-25T13:12:32.008Z,98169.69
2023-03-25T13:15:07.043Z,98175.17
2023-03-25T13:18:10.680Z,98172.61
2023-03-25T13:20:43.437Z,98174.28
2023-03-25T13:23:14.101Z,98171.92
2023-03-25T13:25:53.820Z,98165.55
2023-03-25T13:28:25.730Z,98155.42
2023-03-25T13:30:54.437Z,98144.74
2023-03-25T13:33:25.314Z,98141.64
2023-03-25T13:36:01.607Z,98142.71
2023-03-25T13:38:33.851Z,98133.63
2023-03-25T13:41:12.570Z,98133.30
2023-03-25T13:43:47.818Z,98129.11
2023-03-25T13:46:21.821Z,98124.26
2023-03-25T13:49:14.073Z,98121.91
2023-03-25T13:51:42.867Z,98118.41
2023-03-25T13:54:22.558Z,98115.52
2023-03-25T13:57:11.494Z,98118.53
2023-03-25T13:59:48.781Z,98114.69
2023-03-25T14:02:25.411Z,98108.13
2023-03-25T14:05:29.730Z,98095.03
2023-03-25T14:08:21.495Z,98100.23
2023-03-25T14:11:09.952Z,98092.94
2023-03-25T14:13:42.121Z,98087.20
2023-03-25T14:16:18.264Z,98087.03
2023-03-25T14:18:49.241Z,98089.90
2023-03-25T14:21:27.542Z,98084.68
2023-03-25T14:24:05.045Z,98082.97
2023-03-25T14:26:34.859Z,98080.14
2023-03-25T14:29:22.691Z,98074.15
2023-03-25T14:32:01.835Z,98068.73
2023-03-25T14:34:30.725Z,98064.94
2023-03-25T14:36:59.927Z,98064.81
2023-03-25T14:39:28.447Z,98066.05
2023-03-25T14:42:11.550Z,98065.44
2023-03-25T14:44:50.030Z,98068.06
2023-03-25T14:47:37.092Z,98065.68
2023-03-25T14:50:20.936Z,98065.19
2023-03-25T14:52:52.103Z,98062.86
2023-03-25T14:55:22.111Z,98064.05
2023-03-25T14:57:52.613Z,98063.92
2023-03-25T15:00:29.412Z,98060.48
2023-03-25T15:03:02.017Z,98057.63
2023-03-25T15:05:32.221Z,98060.17
2023-03-25T15:08:09.718Z,98055.73
2023-03-25T15:10:43.248Z,98055.90
2023-03-25T15:13:24.996Z,98055.15
2023-03-25T15:16:00.981Z,98048.17
2023-03-25T15:18:35.998Z,98044.83
2023-03-25T15:21:08.059Z,98035.99
2023-03-25T15:23:47.716Z,98035.71
2023-03-25T15:26:32.479Z,98039.81
2023-03-25T15:29:13.038Z,98038.88
2023-03-25T15:32:03.228Z,98037.92
2023-03-25T15:34:41.337Z,98036.50
2023-03-25T15:37:46.544Z,98040.14
2023-03-25T15:40:37.601Z,98037.48
2023-03-25T15:43:31.496Z,98037.65
2023-03-25T15:46:29.048Z,98036.05
2023-03-25T15:49:06.643Z,98037.41
2023-03-25T15:51:47.209Z,98035.25
2023-03-25T15:54:42.382Z,98033.36
2023-03-25T15:57:23.503Z,98034.45
2023-03-25T16:01:42.030Z,98036.04
2023-03-25T16:04:42.609Z,98033.49
2023-03-25T16:07:13.147Z,98035.13
2023-03-25T16:09:48.321Z,98030.30
2023-03-25T16:12:21.886Z,98031.77
2023-03-25T16:14:51.355Z,98033.31
2023-03-25T16:17:22.349Z,98033.46
2023-03-25T16:19:55.307Z,98031.48
2023-03-25T16:22:33.024Z,98029.45
2023-03-25T16:25:04.483Z,98031.94
2023-03-25T16:27:37.829Z,98026.08
2023-03-25T16:30:26.430Z,98019.09
2023-03-25T16:33:05.767Z,98018.04
2023-03-25T16:35:52.913Z,98025.85
2023-03-25T16:38:23.330Z,98033.58
2023-03-25T16:40:52.394Z,98035.48
2023-03-25T16:43:24.386Z,98030.70
2023-03-25T16:45:56.179Z,98024.76
2023-03-25T16:48:33.757Z,98025.58
2023-03-25T16:51:22.092Z,98022.37
2023-03-25T16:53:53.858Z,98026.84
2023-03-25T16:56:27.963Z,98025.30
2023-03-25T16:59:07.919Z,98023.65
2023-03-25T17:01:39.595Z,98024.52
2023-03-25T17:04:19.125Z,98025.09
2023-03-25T17:07:02.088Z,98022.43
2023-03-25T17:09:34.544Z,98020.86
2023-03-25T17:12:08.042Z,98016.52
2023-03-25T17:14:38.182Z,98013.85
2023-03-25T17:17:49.052Z,98011.50
2023-03-25T17:20:23.144Z,98009.05
2023-03-25T17:23:18.349Z,98004.38
2023-03-25T17:25:53.707Z,97999.36
2023-03-25T17:28:31.290Z,97994.52
2023-03-25T17:30:59.908Z,97989.84
2023-03-25T17:33:36.349Z,97984.73
2023-03-25T17:36:09.247Z,97978.34
2023-03-25T17:38:48.014Z,97974.77
2023-03-25T17:41:17.852Z,97979.27
2023-03-25T17:43:51.049Z,97979.33
2023-03-25T17:46:27.239Z,97979.33
2023-03-25T17:48:57.869Z,97982.08
2023-03-25T17:51:27.865Z,97981.02
2023-03-25T17:53:56.483Z,97982.39
2023-03-25T17:56:26.899Z,97976.27
2023-03-25T17:59:07.589Z,97972.12
2023-03-25T18:01:37.951Z,97966.81
2023-03-25T18:04:07.205Z,97978.12
2023-03-25T18:06:37.947Z,97977.75
2023-03-25T18:09:21.194Z,97984.83
2023-03-25T18:11:54.771Z,97988.77
2023-03-25T18:14:25.513Z,97994.38
2023-03-25T18:16:54.397Z,97993.36
2023-03-25T18:19:26.361Z,97996.23
2023-03-25T18:21:55.312Z,97997.02
2023-03-25T18:24:24.559Z,97991.87
2023-03-25T18:26:53.040Z,97995.78
2023-03-25T18:29:24.512Z,97996.80
2023-03-25T18:31:53.188Z,98000.92
2023-03-25T18:34:23.943Z,98005.17
2023-03-25T18:36:54.271Z,98003.31
2023-03-25T18:39:24.474Z,98005.16
2023-03-25T18:41:53.060Z,98001.98
2023-03-25T18:44:21.653Z,97998.08
2023-03-25T18:46:51.565Z,97997.91
2023-03-25T18:49:20.600Z,98000.58
2023-03-25T18:51:49.245Z,97999.22
2023-03-25T18:54:17.948Z,98002.80
2023-03-25T18:56:46.757Z,98001.93
2023-03-25T18:59:20.945Z,97994.70
2023-03-25T19:01:49.645Z,97988.66
2023-03-25T19:04:18.522Z,97985.15
2023-03-25T19:06:47.109Z,97975.95
2023-03-25T19:09:18.440Z,97968.39
2023-03-25T19:11:47.552Z,97961.31
2023-03-25T19:14:16.594Z,97961.21
2023-03-25T19:16:57.162Z,97959.90
2023-03-25T19:19:31.230Z,97952.92
2023-03-25T19:22:00.942Z,97952.83
2023-03-25T19:24:29.747Z,97952.89
2023-03-25T19:26:59.139Z,97952.48
2023-03-25T19:29:28.041Z,97957.10
2023-03-25T19:31:56.625Z,97958.13
2023-03-25T19:34:25.511Z,97955.06
2023-03-25T19:37:02.774Z,97949.96
2023-03-25T19:39:31.897Z,97944.80
2023-03-25T19:42:01.104Z,97941.55
2023-03-25T19:44:30.194Z,97932.87
2023-03-25T19:47:01.758Z,97920.20
2023-03-25T19:49:39.419Z,97914.12
2023-03-25T19:52:08.753Z,97910.27
2023-03-25T19:54:40.827Z,97911.55
2023-03-25T19:57:10.476Z,97909.80
2023-03-25T19:59:45.068Z,97912.78
2023-03-25T20:02:15.842Z,97913.42
2023-03-25T20:04:44.902Z,97912.62
2023-03-25T20:07:20.645Z,97908.98
2023-03-25T20:09:49.524Z,97907.33
2023-03-25T20:12:18.133Z,97901.35
2023-03-25T20:14:47.330Z,97895.21
2023-03-25T20:17:17.451Z,97896.77
2023-03-25T20:19:45.836Z,97891.98
2023-03-25T20:22:24.125Z,97886.86
2023-03-25T20:24:53.144Z,97878.99
2023-03-25T20:27:21.723Z,97880.38
2023-03-25T20:29:50.104Z,97875.41
2023-03-25T20:32:21.407Z,97871.77
2023-03-25T20:34:52.655Z,97866.48
2023-03-25T20:37:21.288Z,97857.95
2023-03-25T20:39:50.924Z,97854.09
2023-03-25T20:42:19.487Z,97844.20
2023-03-25T20:44:47.997Z,97850.80
2023-03-25T20:47:16.549Z,97849.24
2023-03-25T20:49:44.932Z,97841.73
2023-03-25T20:52:14.443Z,97839.31
2023-03-25T20:54:44.375Z,97837.79
2023-03-25T20:57:12.866Z,97840.96
2023-03-25T20:59:42.963Z,97835.27
2023-03-25T21:02:11.883Z,97831.63
2023-03-25T21:04:40.442Z,97831.56
2023-03-25T21:07:10.574Z,97830.12
2023-03-25T21:09:38.941Z,97827.54
2023-03-25T21:12:07.540Z,97823.94
2023-03-25T21:14:37.865Z,97820.35
2023-03-25T21:17:06.861Z,97817.32
2023-03-25T21:19:38.814Z,97817.27
2023-03-25T21:22:07.401Z,97815.19
2023-03-25T21:24:37.009Z,97822.42
2023-03-25T21:27:05.492Z,97824.04
2023-03-25T21:29:34.385Z,97815.37
2023-03-25T21:32:03.154Z,97819.91
2023-03-25T21:34:32.887Z,97819.95
2023-03-25T21:37:03.931Z,97820.38
2023-03-25T21:39:32.927Z,97815.00
2023-03-25T21:42:09.769Z,97820.68
2023-03-25T21:44:44.135Z,97818.33
2023-03-25T21:47:14.667Z,97814.29
2023-03-25T21:49:43.038Z,97801.30
2023-03-25T21:52:13.240Z,97812.90
2023-03-25T21:54:43.723Z,97815.20
2023-03-25T21:57:12.638Z,97810.14
2023-03-25T21:59:40.964Z,97808.41
2023-03-25T22:02:14.592Z,97804.52
2023-03-25T22:04:43.146Z,97800.59
2023-03-25T22:07:11.629Z,97791.59
2023-03-25T22:09:40.946Z,97796.19
2023-03-25T22:12:09.722Z,97797.87
2023-03-25T22:14:39.944Z,97798.70
2023-03-25T22:17:13.274Z,97802.30
2023-03-25T22:19:42.746Z,97801.81
2023-03-25T22:22:19.357Z,97801.18
2023-03-25T22:24:49.669Z,97796.44
2023-03-25T22:27:18.233Z,97792.33
2023-03-25T22:29:50.810Z,97788.67
2023-03-25T22:32:19.703Z,97787.27
2023-03-25T22:34:48.082Z,97785.48
2023-03-25T22:37:16.666Z,97783.92
2023-03-25T22:39:44.947Z,97783.28
2023-03-25T22:42:13.635Z,97787.11
2023-03-25T22:44:45.007Z,97783.80
2023-03-25T22:47:13.671Z,97782.33
2023-03-25T22:49:42.155Z,97780.14
2023-03-25T22:52:11.355Z,97775.81
2023-03-25T22:54:40.074Z,97780.61
2023-03-25T22:57:08.918Z,97780.84
2023-03-25T22:59:39.574Z,97779.77
2023-03-25T23:02:08.053Z,97775.80
2023-03-25T23:04:38.287Z,97775.98
2023-03-25T23:07:08.612Z,97774.39
2023-03-25T23:09:44.217Z,97771.92
2023-03-25T23:12:17.562Z,97773.55
2023-03-25T23:14:50.140Z,97776.49
2023-03-25T23:17:20.686Z,97777.21
2023-03-25T23:19:49.400Z,97773.80
2023-03-25T23:22:18.153Z,97776.30
2023-03-25T23:24:46.727Z,97772.55
2023-03-25T23:27:15.531Z,97767.64
2023-03-25T23:29:45.259Z,97768.56
2023-03-25T23:32:14.957Z,97766.70
2023-03-25T23:34:43.847Z,97769.40
2023-03-25T23:37:12.655Z,97767.70
2023-03-25T23:39:42.358Z,97766.90
2023-03-25T23:42:11.654Z,97765.29
2023-03-25T23:44:40.060Z,97767.77
2023-03-25T23:47:08.365Z,97764.81
2023-03-25T23:49:38.689Z,97764.33
2023-03-25T23:52:12.648Z,97757.00
2023-03-25T23:54:42.359Z,97762.27
2023-03-25T23:57:11.186Z,97764.77
2023-03-25T23:59:40.970Z,97759.62
